createdAt,value
2022-11-21T00:00:18.820Z,99342.38
2022-11-21T00:01:00.803Z,99354.16
2022-11-21T00:01:41.891Z,99352.66
2022-11-21T00:02:21.764Z,99349.53
2022-11-21T00:03:07.832Z,99353.13
2022-11-21T00:03:47.792Z,99349.53
2022-11-21T00:04:28.155Z,99354.94
2022-11-21T00:05:07.784Z,99340.88
2022-11-21T00:05:54.871Z,99355.88
2022-11-21T00:06:34.831Z,99316.66
2022-11-21T00:07:14.829Z,99349.44
2022-11-21T00:07:55.760Z,99347.19
2022-11-21T00:08:36.856Z,99356.78
2022-11-21T00:09:17.749Z,99348.13
2022-11-21T00:09:57.812Z,99351.03
2022-11-21T00:10:37.756Z,99352.16
2022-11-21T00:11:17.804Z,99340.41
2022-11-21T00:11:58.820Z,99341.25
2022-11-21T00:12:38.825Z,99351.34
2022-11-21T00:13:23.747Z,99325.88
2022-11-21T00:14:04.829Z,99341.28
2022-11-21T00:14:44.739Z,99349.00
2022-11-21T00:15:24.796Z,99350.88
2022-11-21T00:16:12.758Z,99315.50
2022-11-21T00:16:57.125Z,99350.88
2022-11-21T00:17:37.776Z,99349.00
2022-11-21T00:18:17.851Z,99344.47
2022-11-21T00:18:58.772Z,99349.44
2022-11-21T00:19:40.444Z,99348.75
2022-11-21T00:20:20.753Z,99342.50
2022-11-21T00:21:00.832Z,99342.75
2022-11-21T00:21:40.747Z,99351.91
2022-11-21T00:22:20.775Z,99351.91
2022-11-21T00:23:00.787Z,99348.03
2022-11-21T00:23:41.844Z,99351.25
2022-11-21T00:24:21.759Z,99341.97
2022-11-21T00:25:01.783Z,99361.47
2022-11-21T00:25:42.782Z,99354.28
2022-11-21T00:26:23.795Z,99356.88
2022-11-21T00:27:03.767Z,99368.34
2022-11-21T00:27:43.800Z,99358.91
2022-11-21T00:28:24.761Z,99354.22
2022-11-21T00:29:04.808Z,99371.75
2022-11-21T00:29:44.745Z,99361.16
2022-11-21T00:30:24.767Z,99366.53
2022-11-21T00:31:04.793Z,99366.03
2022-11-21T00:31:44.850Z,99367.50
2022-11-21T00:32:24.743Z,99340.75
2022-11-21T00:33:05.787Z,99362.44
2022-11-21T00:33:45.811Z,99356.88
2022-11-21T00:34:26.062Z,99362.72
2022-11-21T00:35:05.741Z,99349.50
2022-11-21T00:35:45.815Z,99362.34
2022-11-21T00:36:25.763Z,99366.47
2022-11-21T00:37:19.764Z,99354.47
2022-11-21T00:38:13.764Z,99358.97
2022-11-21T00:39:00.783Z,99357.28
2022-11-21T00:39:34.797Z,99348.88
2022-11-21T00:40:22.723Z,99361.97
2022-11-21T00:40:56.816Z,99300.75
2022-11-21T00:41:43.734Z,99351.13
2022-11-21T00:42:17.799Z,99354.47
2022-11-21T00:43:04.779Z,99347.28
2022-11-21T00:43:38.796Z,99343.88
2022-11-21T00:44:26.071Z,99341.59
2022-11-21T00:44:59.803Z,99339.03
2022-11-21T00:45:46.723Z,99354.28
2022-11-21T00:46:20.810Z,99353.97
2022-11-21T00:47:07.747Z,99356.59
2022-11-21T00:47:41.809Z,99353.09
2022-11-21T00:48:28.724Z,99353.03
2022-11-21T00:49:02.805Z,99352.78
2022-11-21T00:49:49.781Z,99350.22
2022-11-21T00:50:23.779Z,99342.59
2022-11-21T00:51:10.736Z,99358.16
2022-11-21T00:51:44.825Z,99350.31
2022-11-21T00:52:32.702Z,99337.38
2022-11-21T00:53:12.908Z,99349.34
2022-11-21T00:53:52.703Z,99358.25
2022-11-21T00:54:32.754Z,99353.09
2022-11-21T00:55:12.756Z,99331.69
2022-11-21T00:55:52.806Z,99359.59
2022-11-21T00:56:32.741Z,99358.41
2022-11-21T00:57:13.765Z,99364.84
2022-11-21T00:57:53.736Z,99359.16
2022-11-21T00:58:34.825Z,99358.53
2022-11-21T00:59:14.708Z,99347.00
2022-11-21T00:59:54.823Z,99356.41
2022-11-21T01:00:34.809Z,99363.69
2022-11-21T01:01:20.800Z,99357.84
2022-11-21T01:02:01.696Z,99344.53
2022-11-21T01:02:41.763Z,99342.31
2022-11-21T01:03:21.731Z,99347.19
2022-11-21T01:04:01.787Z,99344.47
2022-11-21T01:04:42.706Z,99345.09
2022-11-21T01:05:22.790Z,99316.13
2022-11-21T01:06:13.716Z,99338.38
2022-11-21T01:06:54.742Z,99346.28
2022-11-21T01:07:34.744Z,99343.91
2022-11-21T01:08:14.744Z,99340.09
2022-11-21T01:08:54.707Z,99343.69
2022-11-21T01:09:35.772Z,99341.63
2022-11-21T01:10:15.697Z,99347.13
2022-11-21T01:10:55.834Z,99341.63
2022-11-21T01:11:36.749Z,99347.97
2022-11-21T01:12:16.802Z,99342.69
2022-11-21T01:12:56.758Z,99344.81
2022-11-21T01:13:36.753Z,99338.03
2022-11-21T01:14:16.703Z,99337.66
2022-11-21T01:14:56.772Z,99348.78
2022-11-21T01:15:36.715Z,99321.75
2022-11-21T01:16:23.954Z,99346.44
2022-11-21T01:17:03.735Z,99345.03
2022-11-21T01:17:43.727Z,99353.25
2022-11-21T01:18:23.679Z,99340.22
2022-11-21T01:19:05.062Z,99329.44
2022-11-21T01:19:45.704Z,99338.94
2022-11-21T01:20:26.790Z,99348.34
2022-11-21T01:21:13.655Z,99346.09
2022-11-21T01:21:53.752Z,99330.03
2022-11-21T01:22:33.719Z,99340.22
2022-11-21T01:23:13.791Z,99341.06
2022-11-21T01:23:54.680Z,99343.50
2022-11-21T01:24:34.731Z,99341.06
2022-11-21T01:25:15.672Z,99338.09
2022-11-21T01:25:55.695Z,99339.91
2022-11-21T01:26:38.705Z,99332.03
2022-11-21T01:27:18.741Z,99340.59
2022-11-21T01:27:58.739Z,99338.56
2022-11-21T01:28:39.763Z,99336.25
2022-11-21T01:29:19.687Z,99330.31
2022-11-21T01:30:00.764Z,99343.59
2022-11-21T01:30:40.696Z,99347.47
2022-11-21T01:31:24.764Z,99352.75
2022-11-21T01:32:04.669Z,99350.78
2022-11-21T01:32:44.752Z,99349.31
2022-11-21T01:33:24.707Z,99339.38
2022-11-21T01:34:06.702Z,99349.66
2022-11-21T01:34:46.684Z,99346.91
2022-11-21T01:35:26.791Z,99343.72
2022-11-21T01:36:20.678Z,99341.06
2022-11-21T01:37:01.285Z,99344.34
2022-11-21T01:37:41.674Z,99347.59
2022-11-21T01:38:21.732Z,99348.56
2022-11-21T01:39:04.709Z,99346.56
2022-11-21T01:39:45.743Z,99333.50
2022-11-21T01:40:25.712Z,99341.38
2022-11-21T01:41:05.719Z,99337.75
2022-11-21T01:41:48.704Z,99336.84
2022-11-21T01:42:28.772Z,99347.88
2022-11-21T01:43:17.703Z,99329.13
2022-11-21T01:43:58.230Z,99335.47
2022-11-21T01:44:59.685Z,99345.84
2022-11-21T01:46:01.756Z,99349.78
2022-11-21T01:46:41.653Z,99340.88
2022-11-21T01:47:22.697Z,99343.34
2022-11-21T01:48:02.655Z,99327.88
2022-11-21T01:49:12.967Z,99330.88
2022-11-21T01:49:53.655Z,99341.16
2022-11-21T01:50:33.667Z,99326.91
2022-11-21T01:51:14.777Z,99333.59
2022-11-21T01:52:07.003Z,99325.91
2022-11-21T01:52:46.633Z,99327.16
2022-11-21T01:53:20.713Z,99319.28
2022-11-21T01:54:03.398Z,99323.41
2022-11-21T01:54:47.680Z,99307.06
2022-11-21T01:55:21.704Z,99325.13
2022-11-21T01:56:01.673Z,99323.59
2022-11-21T01:57:16.816Z,99298.31
2022-11-21T01:57:56.646Z,99319.91
2022-11-21T01:58:38.756Z,99298.19
2022-11-21T01:59:26.655Z,99285.16
2022-11-21T02:00:21.523Z,99316.16
2022-11-21T02:01:01.691Z,99295.63
2022-11-21T02:01:41.695Z,99301.78
2022-11-21T02:02:25.651Z,99312.03
2022-11-21T02:03:09.666Z,99316.50
2022-11-21T02:03:50.697Z,99307.59
2022-11-21T02:04:34.701Z,99317.78
2022-11-21T02:05:19.649Z,99321.38
2022-11-21T02:06:08.651Z,99325.06
2022-11-21T02:06:42.327Z,99320.25
2022-11-21T02:07:31.685Z,99315.19
2022-11-21T02:08:18.582Z,99324.00
2022-11-21T02:09:06.716Z,99324.94
2022-11-21T02:09:42.957Z,99324.78
2022-11-21T02:10:30.627Z,99323.00
2022-11-21T02:11:41.680Z,99286.84
2022-11-21T02:12:29.671Z,99302.38
2022-11-21T02:13:09.674Z,99312.03
2022-11-21T02:13:50.632Z,99307.34
2022-11-21T02:14:30.633Z,99312.56
2022-11-21T02:15:11.694Z,99312.31
2022-11-21T02:15:51.615Z,99310.44
2022-11-21T02:16:32.787Z,99291.09
2022-11-21T02:17:13.635Z,99295.22
2022-11-21T02:17:53.781Z,99297.78
2022-11-21T02:18:34.593Z,99290.50
2022-11-21T02:19:26.704Z,99292.88
2022-11-21T02:20:11.604Z,99287.41
2022-11-21T02:20:55.708Z,99284.88
2022-11-21T02:21:57.643Z,99290.50
2022-11-21T02:23:19.624Z,99293.94
2022-11-21T02:24:04.682Z,99274.25
2022-11-21T02:24:52.793Z,99286.31
2022-11-21T02:25:35.587Z,99289.56
2022-11-21T02:26:09.667Z,99289.47
2022-11-21T02:26:43.470Z,99285.19
2022-11-21T02:27:24.615Z,99293.59
2022-11-21T02:28:13.705Z,99265.34
2022-11-21T02:28:54.803Z,99291.00
2022-11-21T02:29:35.677Z,99286.56
2022-11-21T02:30:17.606Z,99291.53
2022-11-21T02:30:57.720Z,99285.63
2022-11-21T02:31:37.599Z,99291.88
2022-11-21T02:32:31.820Z,99291.59
2022-11-21T02:33:12.603Z,99281.41
2022-11-21T02:33:53.733Z,99287.94
2022-11-21T02:34:33.618Z,99281.56
2022-11-21T02:35:15.676Z,99288.53
2022-11-21T02:36:42.647Z,99281.56
2022-11-21T02:37:24.667Z,99247.63
2022-11-21T02:38:13.583Z,99273.34
2022-11-21T02:38:54.612Z,99272.41
2022-11-21T02:39:42.618Z,99272.00
2022-11-21T02:40:28.675Z,99272.66
2022-11-21T02:41:32.611Z,99270.00
2022-11-21T02:42:32.628Z,99267.06
2022-11-21T02:43:29.628Z,99263.66
2022-11-21T02:44:19.632Z,99271.19
2022-11-21T02:45:36.683Z,99277.84
2022-11-21T02:46:16.635Z,99267.94
2022-11-21T02:46:58.593Z,99275.53
2022-11-21T02:47:39.710Z,99268.34
2022-11-21T02:48:20.574Z,99268.00
2022-11-21T02:49:02.632Z,99273.31
2022-11-21T02:50:31.595Z,99270.81
2022-11-21T02:51:11.595Z,99267.91
2022-11-21T02:51:45.911Z,99260.28
2022-11-21T02:52:19.227Z,99257.63
2022-11-21T02:52:59.563Z,99259.94
2022-11-21T02:53:33.775Z,99234.75
2022-11-21T02:54:07.316Z,99255.28
2022-11-21T02:54:47.581Z,99254.41
2022-11-21T02:55:21.621Z,99256.16
2022-11-21T02:55:55.347Z,99257.66
2022-11-21T02:56:35.611Z,99245.34
2022-11-21T02:57:09.620Z,99248.41
2022-11-21T02:57:43.408Z,99243.94
2022-11-21T02:58:24.564Z,99248.41
2022-11-21T02:58:58.699Z,99254.38
2022-11-21T02:59:32.252Z,99243.94
2022-11-21T03:00:14.620Z,99248.88
2022-11-21T03:00:49.919Z,99244.34
2022-11-21T03:01:24.946Z,99249.47
2022-11-21T03:02:06.617Z,99250.31
2022-11-21T03:02:40.631Z,99248.41
2022-11-21T03:03:14.556Z,99255.34
2022-11-21T03:03:54.568Z,99243.22
2022-11-21T03:04:29.227Z,99249.84
2022-11-21T03:05:05.682Z,99237.53
2022-11-21T03:05:46.573Z,99242.63
2022-11-21T03:06:20.643Z,99245.28
2022-11-21T03:06:54.432Z,99246.06
2022-11-21T03:07:35.653Z,99241.50
2022-11-21T03:08:10.662Z,99230.31
2022-11-21T03:08:44.295Z,99233.63
2022-11-21T03:09:24.575Z,99237.91
2022-11-21T03:09:58.658Z,99234.75
2022-11-21T03:10:32.732Z,99236.94
2022-11-21T03:11:12.574Z,99232.47
2022-11-21T03:11:46.579Z,99235.06
2022-11-21T03:12:20.322Z,99238.56
2022-11-21T03:13:07.587Z,99233.16
2022-11-21T03:13:41.616Z,99228.06
2022-11-21T03:14:15.308Z,99232.97
2022-11-21T03:14:55.645Z,99235.66
2022-11-21T03:15:29.865Z,99234.69
2022-11-21T03:16:03.330Z,99235.34
2022-11-21T03:16:44.535Z,99231.94
2022-11-21T03:17:18.626Z,99234.47
2022-11-21T03:17:52.285Z,99216.25
2022-11-21T03:18:32.585Z,99231.94
2022-11-21T03:19:06.626Z,99220.63
2022-11-21T03:19:40.251Z,99223.84
2022-11-21T03:20:20.552Z,99215.13
2022-11-21T03:20:54.589Z,99199.34
2022-11-21T03:21:28.288Z,99218.38
2022-11-21T03:22:09.582Z,99222.94
2022-11-21T03:22:43.621Z,99180.88
2022-11-21T03:23:17.224Z,99213.91
2022-11-21T03:23:57.580Z,99220.06
2022-11-21T03:24:31.575Z,99200.03
2022-11-21T03:25:05.763Z,99214.56
2022-11-21T03:25:45.555Z,99216.63
2022-11-21T03:26:19.711Z,99206.13
2022-11-21T03:26:53.265Z,99213.97
2022-11-21T03:27:34.540Z,99209.34
2022-11-21T03:28:08.618Z,99217.88
2022-11-21T03:28:42.961Z,99204.03
2022-11-21T03:29:22.581Z,99206.31
2022-11-21T03:29:56.632Z,99204.50
2022-11-21T03:30:30.545Z,99207.72
2022-11-21T03:31:11.552Z,99206.41
2022-11-21T03:31:45.614Z,99207.16
2022-11-21T03:32:19.257Z,99203.44
2022-11-21T03:33:03.547Z,99208.84
2022-11-21T03:33:37.626Z,99201.84
2022-11-21T03:34:11.328Z,99205.06
2022-11-21T03:34:52.564Z,99212.94
2022-11-21T03:35:26.604Z,99203.09
2022-11-21T03:36:01.234Z,99205.44
2022-11-21T03:36:41.552Z,99192.25
2022-11-21T03:37:15.883Z,99186.81
2022-11-21T03:37:49.559Z,99192.72
2022-11-21T03:38:29.517Z,99194.34
2022-11-21T03:39:03.613Z,99201.09
2022-11-21T03:39:37.267Z,99196.63
2022-11-21T03:40:18.591Z,99198.09
2022-11-21T03:40:52.568Z,99185.41
2022-11-21T03:41:29.699Z,99185.31
2022-11-21T03:42:10.562Z,99181.91
2022-11-21T03:42:44.582Z,99194.03
2022-11-21T03:43:18.258Z,99193.00
2022-11-21T03:43:58.549Z,99189.66
2022-11-21T03:44:32.539Z,99196.63
2022-11-21T03:45:07.000Z,99193.84
2022-11-21T03:45:47.555Z,99199.16
2022-11-21T03:46:21.582Z,99196.50
2022-11-21T03:46:55.208Z,99198.22
2022-11-21T03:47:36.521Z,99197.56
2022-11-21T03:48:10.698Z,99185.53
2022-11-21T03:48:44.201Z,99204.50
2022-11-21T03:49:24.531Z,99187.00
2022-11-21T03:49:58.630Z,99198.09
2022-11-21T03:50:33.187Z,99194.53
2022-11-21T03:51:13.523Z,99189.28
2022-11-21T03:51:47.583Z,99180.28
2022-11-21T03:52:21.698Z,99189.50
2022-11-21T03:53:01.514Z,99183.22
2022-11-21T03:53:35.556Z,99189.38
2022-11-21T03:54:09.362Z,99182.38
2022-11-21T03:54:49.507Z,99183.41
2022-11-21T03:55:23.563Z,99182.53
2022-11-21T03:55:57.166Z,99185.47
2022-11-21T03:56:38.536Z,99189.56
2022-11-21T03:57:12.588Z,99186.22
2022-11-21T03:57:46.386Z,99185.78
2022-11-21T03:58:26.545Z,99169.00
2022-11-21T03:59:00.584Z,99176.19
2022-11-21T03:59:34.235Z,99181.50
2022-11-21T04:00:16.528Z,99172.88
2022-11-21T04:00:50.555Z,99177.91
2022-11-21T04:01:24.909Z,99179.22
2022-11-21T04:02:04.548Z,99179.22
2022-11-21T04:02:38.560Z,99170.09
2022-11-21T04:03:12.230Z,99167.09
2022-11-21T04:03:53.527Z,99164.31
2022-11-21T04:04:27.836Z,99165.91
2022-11-21T04:05:02.164Z,99155.16
2022-11-21T04:05:42.508Z,99172.47
2022-11-21T04:06:18.630Z,99163.41
2022-11-21T04:06:52.183Z,99165.22
2022-11-21T04:07:32.545Z,99159.72
2022-11-21T04:08:06.612Z,99152.50
2022-11-21T04:08:40.458Z,99158.47
2022-11-21T04:09:21.508Z,99160.28
2022-11-21T04:09:55.581Z,99146.97
2022-11-21T04:10:29.212Z,99156.00
2022-11-21T04:11:10.512Z,99155.03
2022-11-21T04:11:44.609Z,99139.28
2022-11-21T04:12:18.185Z,99148.69
2022-11-21T04:12:58.526Z,99151.97
2022-11-21T04:13:32.584Z,99144.31
2022-11-21T04:14:07.168Z,99147.44
2022-11-21T04:14:47.479Z,99145.69
2022-11-21T04:15:21.569Z,99152.53
2022-11-21T04:15:55.271Z,99153.91
2022-11-21T04:16:35.480Z,99149.25
2022-11-21T04:17:09.541Z,99142.31
2022-11-21T04:17:43.291Z,99146.66
2022-11-21T04:18:24.553Z,99150.72
2022-11-21T04:18:58.589Z,99145.41
2022-11-21T04:19:32.171Z,99153.09
2022-11-21T04:20:13.504Z,99155.00
2022-11-21T04:20:47.559Z,99133.34
2022-11-21T04:21:21.246Z,99143.81
2022-11-21T04:22:01.486Z,99160.13
2022-11-21T04:22:35.531Z,99146.06
2022-11-21T04:23:22.490Z,99154.59
2022-11-21T04:24:03.464Z,99153.84
2022-11-21T04:24:57.506Z,99146.06
2022-11-21T04:25:51.595Z,99159.94
2022-11-21T04:26:45.486Z,99152.34
2022-11-21T04:27:39.479Z,99148.91
2022-11-21T04:28:33.513Z,99151.16
2022-11-21T04:29:27.466Z,99155.34
2022-11-21T04:30:22.464Z,99152.91
2022-11-21T04:31:20.497Z,99155.56
2022-11-21T04:32:14.513Z,99153.84
2022-11-21T04:33:09.525Z,99146.72
2022-11-21T04:33:56.541Z,99151.84
2022-11-21T04:34:36.573Z,99131.91
2022-11-21T04:35:16.473Z,99128.28
2022-11-21T04:35:56.541Z,99137.50
2022-11-21T04:36:36.529Z,99134.28
2022-11-21T04:37:16.720Z,99103.34
2022-11-21T04:37:58.512Z,99107.53
2022-11-21T04:38:38.579Z,99121.16
2022-11-21T04:39:18.508Z,99117.00
2022-11-21T04:39:58.540Z,99116.34
2022-11-21T04:40:38.477Z,99116.44
2022-11-21T04:41:18.516Z,99105.28
2022-11-21T04:41:58.453Z,99117.22
2022-11-21T04:42:39.532Z,99102.91
2022-11-21T04:43:19.438Z,99112.06
2022-11-21T04:43:59.619Z,99111.22
2022-11-21T04:44:39.511Z,99110.81
2022-11-21T04:45:21.536Z,99108.13
2022-11-21T04:46:01.454Z,99103.03
2022-11-21T04:46:41.508Z,99100.88
2022-11-21T04:47:21.517Z,99105.06
2022-11-21T04:48:01.504Z,99101.44
2022-11-21T04:48:41.497Z,99103.06
2022-11-21T04:49:21.498Z,99105.50
2022-11-21T04:50:01.456Z,99091.66
2022-11-21T04:50:41.552Z,99107.13
2022-11-21T04:51:21.463Z,99093.81
2022-11-21T04:52:02.498Z,99101.13
2022-11-21T04:52:42.471Z,99089.09
2022-11-21T04:53:22.564Z,99094.00
2022-11-21T04:54:02.442Z,99099.75
2022-11-21T04:54:42.491Z,99095.94
2022-11-21T04:55:22.447Z,99100.28
2022-11-21T04:56:02.483Z,99095.53
2022-11-21T04:56:43.475Z,99083.38
2022-11-21T04:57:23.505Z,99096.47
2022-11-21T04:58:03.484Z,99102.53
2022-11-21T04:58:44.678Z,99093.81
2022-11-21T04:59:24.440Z,99098.91
2022-11-21T05:00:04.535Z,99099.88
2022-11-21T05:00:44.495Z,99097.97
2022-11-21T05:01:25.570Z,99093.31
2022-11-21T05:02:05.410Z,99093.31
2022-11-21T05:02:45.620Z,99095.09
2022-11-21T05:03:25.451Z,99080.41
2022-11-21T05:04:05.551Z,99082.00
2022-11-21T05:04:46.442Z,99082.97
2022-11-21T05:05:26.463Z,99088.94
2022-11-21T05:06:06.505Z,99091.38
2022-11-21T05:06:46.473Z,99083.41
2022-11-21T05:07:26.558Z,99080.00
2022-11-21T05:08:06.493Z,99083.19
2022-11-21T05:08:51.642Z,99078.53
2022-11-21T05:09:32.445Z,99063.00
2022-11-21T05:10:13.442Z,99078.53
2022-11-21T05:11:20.449Z,99074.91
2022-11-21T05:12:13.021Z,99074.63
2022-11-21T05:13:18.444Z,99078.13
2022-11-21T05:13:54.505Z,99073.84
2022-11-21T05:14:41.488Z,99063.44
2022-11-21T05:15:15.114Z,99066.63
2022-11-21T05:16:03.420Z,99069.19
2022-11-21T05:16:43.478Z,99056.84
2022-11-21T05:17:23.442Z,99064.72
2022-11-21T05:18:06.495Z,99071.06
2022-11-21T05:18:46.513Z,99066.94
2022-11-21T05:19:26.484Z,99061.50
2022-11-21T05:20:07.472Z,99063.31
2022-11-21T05:20:48.408Z,99062.34
2022-11-21T05:21:28.499Z,99067.91
2022-11-21T05:22:08.489Z,99057.44
2022-11-21T05:22:49.877Z,99065.97
2022-11-21T05:23:31.436Z,99068.53
2022-11-21T05:24:12.497Z,99050.53
2022-11-21T05:24:52.444Z,99061.91
2022-11-21T05:25:33.479Z,99064.28
2022-11-21T05:26:20.468Z,99068.53
2022-11-21T05:26:54.439Z,99053.19
2022-11-21T05:27:35.443Z,99064.28
2022-11-21T05:28:15.564Z,99064.88
2022-11-21T05:28:55.393Z,99055.09
2022-11-21T05:29:35.983Z,99059.78
2022-11-21T05:30:18.513Z,99043.69
2022-11-21T05:30:58.427Z,99053.81
2022-11-21T05:31:38.442Z,99040.25
2022-11-21T05:32:18.494Z,99048.03
2022-11-21T05:32:58.418Z,99035.91
2022-11-21T05:33:38.488Z,99043.97
2022-11-21T05:34:18.381Z,99037.81
2022-11-21T05:34:58.473Z,99028.53
2022-11-21T05:35:42.967Z,99042.28
2022-11-21T05:36:23.462Z,99033.47
2022-11-21T05:37:06.420Z,99036.84
2022-11-21T05:37:46.521Z,99032.09
2022-11-21T05:38:26.430Z,99027.38
2022-11-21T05:39:06.465Z,99032.09
2022-11-21T05:39:47.387Z,99025.25
2022-11-21T05:40:27.579Z,99018.91
2022-11-21T05:41:07.385Z,99024.84
2022-11-21T05:41:47.437Z,99017.63
2022-11-21T05:42:47.429Z,99023.03
2022-11-21T05:43:52.452Z,99022.72
2022-11-21T05:44:46.419Z,99021.88
2022-11-21T05:45:40.376Z,99002.28
2022-11-21T05:46:38.375Z,99014.41
2022-11-21T05:47:32.351Z,99020.81
2022-11-21T05:48:26.573Z,99013.78
2022-11-21T05:49:14.454Z,99011.66
2022-11-21T05:49:48.425Z,99010.69
2022-11-21T05:50:35.392Z,99003.69
2022-11-21T05:51:11.536Z,99007.84
2022-11-21T05:51:58.370Z,99004.22
2022-11-21T05:52:32.426Z,98995.50
2022-11-21T05:53:19.403Z,98999.63
2022-11-21T05:53:54.462Z,99000.41
2022-11-21T05:54:34.379Z,99003.91
2022-11-21T05:55:15.428Z,98995.28
2022-11-21T05:55:55.419Z,99002.31
2022-11-21T05:56:35.415Z,99003.06
2022-11-21T05:57:15.405Z,99009.97
2022-11-21T05:57:55.497Z,99002.31
2022-11-21T05:58:36.363Z,98995.50
2022-11-21T05:59:17.470Z,98999.44
2022-11-21T05:59:57.399Z,98995.69
2022-11-21T06:00:37.746Z,99006.03
2022-11-21T06:01:21.374Z,98994.84
2022-11-21T06:02:20.152Z,98997.44
2022-11-21T06:03:19.485Z,98992.41
2022-11-21T06:04:00.464Z,98987.84
2022-11-21T06:04:41.383Z,98999.75
2022-11-21T06:05:21.393Z,98994.22
2022-11-21T06:05:55.397Z,98997.63
2022-11-21T06:06:44.374Z,98978.88
2022-11-21T06:07:18.459Z,98998.06
2022-11-21T06:08:05.368Z,98992.41
2022-11-21T06:08:48.387Z,98997.44
2022-11-21T06:09:28.363Z,98992.31
2022-11-21T06:10:08.399Z,98994.44
2022-11-21T06:10:48.391Z,99002.59
2022-11-21T06:11:28.420Z,98999.50
2022-11-21T06:12:08.363Z,99006.34
2022-11-21T06:12:48.370Z,98983.97
2022-11-21T06:13:28.349Z,98992.72
2022-11-21T06:14:08.418Z,98990.78
2022-11-21T06:14:48.354Z,98980.34
2022-11-21T06:15:28.390Z,98993.47
2022-11-21T06:16:12.379Z,98993.56
2022-11-21T06:16:52.404Z,98994.31
2022-11-21T06:17:33.363Z,99000.16
2022-11-21T06:18:14.359Z,98986.09
2022-11-21T06:18:59.339Z,98992.50
2022-11-21T06:19:39.376Z,98998.25
2022-11-21T06:20:19.354Z,98997.41
2022-11-21T06:21:00.525Z,98995.69
2022-11-21T06:21:43.423Z,98993.03
2022-11-21T06:22:23.385Z,98994.44
2022-11-21T06:23:03.349Z,98999.63
2022-11-21T06:23:43.419Z,99007.44
2022-11-21T06:24:23.356Z,98994.13
2022-11-21T06:25:03.433Z,99003.69
2022-11-21T06:25:43.323Z,99004.97
2022-11-21T06:26:29.454Z,99008.38
2022-11-21T06:27:09.359Z,99007.44
2022-11-21T06:27:50.390Z,99002.09
2022-11-21T06:28:31.378Z,98994.53
2022-11-21T06:29:11.428Z,98997.75
2022-11-21T06:29:51.371Z,98997.63
2022-11-21T06:30:31.410Z,98989.09
2022-11-21T06:31:19.308Z,98986.56
2022-11-21T06:31:59.369Z,98990.81
2022-11-21T06:32:44.462Z,98984.88
2022-11-21T06:33:25.367Z,98985.59
2022-11-21T06:34:06.307Z,98993.38
2022-11-21T06:34:46.437Z,98995.09
2022-11-21T06:35:26.331Z,98986.13
2022-11-21T06:36:20.380Z,98992.97
2022-11-21T06:37:00.346Z,98983.34
2022-11-21T06:37:40.463Z,98965.28
2022-11-21T06:38:20.350Z,98981.34
2022-11-21T06:39:02.392Z,98988.19
2022-11-21T06:39:42.322Z,98969.94
2022-11-21T06:40:23.392Z,98980.19
2022-11-21T06:41:03.344Z,98980.19
2022-11-21T06:41:50.910Z,98982.84
2022-11-21T06:42:31.306Z,98978.69
2022-11-21T06:43:11.368Z,98986.97
2022-11-21T06:43:52.353Z,98983.34
2022-11-21T06:44:32.372Z,98985.16
2022-11-21T06:45:13.303Z,98986.13
2022-11-21T06:45:54.360Z,98981.66
2022-11-21T06:46:34.315Z,98974.53
2022-11-21T06:47:14.364Z,98977.41
2022-11-21T06:47:55.344Z,98969.50
2022-11-21T06:48:36.466Z,98971.75
2022-11-21T06:49:16.393Z,98975.81
2022-11-21T06:49:56.407Z,98983.34
2022-11-21T06:50:37.323Z,98971.00
2022-11-21T06:51:29.369Z,98985.50
2022-11-21T06:52:09.310Z,98978.69
2022-11-21T06:52:49.344Z,98973.38
2022-11-21T06:53:29.314Z,98970.47
2022-11-21T06:54:12.610Z,98975.47
2022-11-21T06:54:56.336Z,98967.63
2022-11-21T06:55:38.488Z,98973.34
2022-11-21T06:56:18.298Z,98965.69
2022-11-21T06:56:59.365Z,98967.19
2022-11-21T06:57:39.300Z,98971.22
2022-11-21T06:58:19.587Z,98972.28
2022-11-21T06:58:59.291Z,98953.13
2022-11-21T06:59:39.315Z,98971.13
2022-11-21T07:00:20.340Z,98966.44
2022-11-21T07:01:00.381Z,98964.63
2022-11-21T07:01:40.340Z,98966.63
2022-11-21T07:02:23.338Z,98952.47
2022-11-21T07:03:10.332Z,98961.22
2022-11-21T07:03:50.397Z,98959.72
2022-11-21T07:04:30.445Z,98951.19
2022-11-21T07:05:10.322Z,98957.16
2022-11-21T07:05:50.296Z,98957.91
2022-11-21T07:06:31.429Z,98964.00
2022-11-21T07:07:11.337Z,98958.00
2022-11-21T07:07:51.312Z,98957.78
2022-11-21T07:08:31.306Z,98957.59
2022-11-21T07:09:41.216Z,98939.25
2022-11-21T07:10:13.292Z,98945.13
2022-11-21T07:11:23.673Z,98944.91
2022-11-21T07:11:54.033Z,98945.41
2022-11-21T07:12:59.289Z,98946.16
2022-11-21T07:13:33.386Z,98944.56
2022-11-21T07:14:21.306Z,98952.34
2022-11-21T07:14:55.033Z,98942.75
2022-11-21T07:15:42.295Z,98947.97
2022-11-21T07:16:22.318Z,98932.44
2022-11-21T07:17:02.369Z,98932.25
2022-11-21T07:17:42.288Z,98951.28
2022-11-21T07:18:22.658Z,98948.94
2022-11-21T07:19:03.295Z,98936.41
2022-11-21T07:19:43.365Z,98950.97
2022-11-21T07:20:23.290Z,98935.88
2022-11-21T07:21:13.351Z,98937.38
2022-11-21T07:21:53.320Z,98948.84
2022-11-21T07:22:33.389Z,98933.53
2022-11-21T07:23:14.256Z,98939.94
2022-11-21T07:23:55.356Z,98944.81
2022-11-21T07:24:35.267Z,98952.47
2022-11-21T07:25:16.327Z,98946.75
2022-11-21T07:25:56.292Z,98955.56
2022-11-21T07:26:36.353Z,98955.66
2022-11-21T07:27:16.323Z,98962.59
2022-11-21T07:27:56.324Z,98949.69
2022-11-21T07:28:37.267Z,98966.66
2022-11-21T07:29:17.297Z,98957.47
2022-11-21T07:29:58.276Z,98953.94
2022-11-21T07:30:39.364Z,98939.16
2022-11-21T07:31:19.282Z,98965.25
2022-11-21T07:31:59.325Z,98962.88
2022-11-21T07:32:39.280Z,98949.69
2022-11-21T07:33:20.336Z,98951.63
2022-11-21T07:34:00.290Z,98962.44
2022-11-21T07:34:40.363Z,98965.00
2022-11-21T07:35:20.246Z,98963.69
2022-11-21T07:36:03.285Z,98963.69
2022-11-21T07:36:43.264Z,98967.13
2022-11-21T07:37:24.320Z,98970.50
2022-11-21T07:38:04.256Z,98957.84
2022-11-21T07:38:44.311Z,98944.84
2022-11-21T07:39:24.245Z,98961.88
2022-11-21T07:40:04.284Z,98964.09
2022-11-21T07:40:44.259Z,98966.63
2022-11-21T07:41:24.293Z,98958.75
2022-11-21T07:42:04.227Z,98964.09
2022-11-21T07:42:44.295Z,98961.41
2022-11-21T07:43:25.259Z,98965.56
2022-11-21T07:44:05.276Z,98963.13
2022-11-21T07:44:46.256Z,98957.78
2022-11-21T07:45:27.280Z,98961.31
2022-11-21T07:46:07.269Z,98959.38
2022-11-21T07:46:48.337Z,98952.69
2022-11-21T07:47:28.253Z,98961.19
2022-11-21T07:48:11.916Z,98954.41
2022-11-21T07:48:52.252Z,98953.03
2022-11-21T07:49:32.296Z,98956.28
2022-11-21T07:50:20.267Z,98955.13
2022-11-21T07:50:54.276Z,98940.88
2022-11-21T07:51:41.234Z,98946.94
2022-11-21T07:52:15.291Z,98964.53
2022-11-21T07:53:10.252Z,98963.28
2022-11-21T07:53:44.331Z,98947.28
2022-11-21T07:54:24.285Z,98959.66
2022-11-21T07:55:04.745Z,98960.81
2022-11-21T07:55:45.251Z,98953.28
2022-11-21T07:56:26.678Z,98946.44
2022-11-21T07:57:06.243Z,98947.22
2022-11-21T07:57:46.326Z,98946.97
2022-11-21T07:58:26.219Z,98956.47
2022-11-21T07:59:06.279Z,98946.00
2022-11-21T07:59:46.256Z,98939.38
2022-11-21T08:00:26.334Z,98937.38
2022-11-21T08:01:13.247Z,98954.91
2022-11-21T08:01:53.368Z,98952.97
2022-11-21T08:02:35.225Z,98952.00
2022-11-21T08:03:15.288Z,98945.63
2022-11-21T08:03:55.228Z,98938.56
2022-11-21T08:04:35.312Z,98957.41